Time;durP1;ratioP1;P1;durP2;ratioP2;P2;SDS_P1;SDS_P2;PMS_P1;PMS_P2;Temp;Humidity;BMP_temperature;BMP_pressure;BME280_temperature;BME280_humidity;BME280_pressure;Samples;Min_cycle;Max_cycle;Signal;HPM_P1;HPM_P2
2021/09/09 08:35:37;;;;;;;3.35;2.50;;;29.30;99.90;;;;;;6268107;22;20206;-71
2021/09/09 08:38:04;;;;;;;6.63;2.50;;;29.30;99.90;;;;;;6276893;22;20190;-71
2021/09/09 08:40:31;;;;;;;3.75;2.65;;;29.40;99.90;;;;;;6276983;22;20245;-71
2021/09/09 08:42:58;;;;;;;3.78;2.35;;;29.30;99.90;;;;;;6277386;22;20198;-71
2021/09/09 08:45:25;;;;;;;8.35;2.60;;;29.20;99.90;;;;;;6277397;22;20175;-71
2021/09/09 08:47:53;;;;;;;5.60;2.53;;;29.00;99.90;;;;;;6277566;22;20278;-71
2021/09/09 08:50:19;;;;;;;4.50;2.67;;;29.00;99.90;;;;;;6277702;22;20179;-71
2021/09/09 08:52:50;;;;;;;3.08;2.20;;;28.80;99.90;;;;;;6277317;22;20195;-71
2021/09/09 08:55:19;;;;;;;5.05;2.85;;;28.90;99.90;;;;;;6276919;22;20175;-71
2021/09/09 08:57:45;;;;;;;5.35;2.45;;;28.80;99.90;;;;;;6277298;22;20179;-71
2021/09/09 09:00:14;;;;;;;3.78;2.55;;;28.80;99.90;;;;;;6277448;22;20240;-71
2021/09/09 09:02:48;;;;;;;5.80;3.00;;;28.60;99.90;;;;;;6276691;22;20426;-71
2021/09/09 09:05:15;;;;;;;7.57;2.25;;;28.50;99.90;;;;;;6277107;22;20688;-71
2021/09/09 09:07:42;;;;;;;3.70;2.50;;;28.60;99.90;;;;;;6276848;22;20637;-70
2021/09/09 09:10:11;;;;;;;4.38;2.58;;;28.60;99.90;;;;;;6277568;22;20175;-72
2021/09/09 09:12:40;;;;;;;4.53;2.67;;;28.90;99.90;;;;;;6277402;22;20234;-77
2021/09/09 09:15:11;;;;;;;2.58;2.13;;;28.90;99.90;;;;;;6277262;22;20268;-71
2021/09/09 09:18:04;;;;;;;8.23;2.90;;;28.50;99.90;;;;;;6277313;22;20181;-75
2021/09/09 09:20:40;;;;;;;4.30;2.40;;;28.60;99.90;;;;;;6271006;22;20202;-76
2021/09/09 09:23:13;;;;;;;2.80;2.10;;;28.70;99.90;;;;;;6275530;22;20201;-76
2021/09/09 09:25:50;;;;;;;6.32;2.50;;;28.70;99.90;;;;;;6275121;22;20179;-75
2021/09/09 09:28:37;;;;;;;2.90;2.17;;;28.60;99.90;;;;;;6275150;22;20201;-74
2021/09/09 09:31:06;;;;;;;5.00;2.42;;;28.30;99.90;;;;;;6275504;22;20258;-73
2021/09/09 09:33:35;;;;;;;3.10;2.30;;;27.90;99.90;;;;;;6274827;22;20559;-72
2021/09/09 09:36:20;;;;;;;5.30;2.10;;;27.50;99.90;;;;;;6274852;22;20273;-74
2021/09/09 09:38:48;;;;;;;5.00;2.92;;;27.10;99.90;;;;;;6275004;22;20497;-74
2021/09/09 09:41:19;;;;;;;4.80;2.72;;;26.80;99.90;;;;;;6274472;22;20289;-74
2021/09/09 09:43:59;;;;;;;6.70;2.75;;;26.70;99.90;;;;;;6275225;22;20175;-73
2021/09/09 09:46:28;;;;;;;3.70;2.40;;;26.50;99.90;;;;;;6275313;22;20183;-74
2021/09/09 09:48:55;;;;;;;5.78;2.88;;;26.80;99.90;;;;;;6274260;22;20179;-76
2021/09/09 09:51:42;;;;;;;4.68;2.78;;;26.80;99.90;;;;;;6274814;22;20274;-72
2021/09/09 09:54:10;;;;;;;4.95;2.83;;;26.70;99.90;;;;;;6275374;22;20233;-72
2021/09/09 09:56:39;;;;;;;4.03;2.72;;;26.50;99.90;;;;;;6274826;22;20175;-74
2021/09/09 09:59:06;;;;;;;5.43;3.10;;;26.50;99.90;;;;;;6275291;22;20257;-71
2021/09/09 10:01:34;;;;;;;5.50;3.35;;;26.60;99.90;;;;;;6274704;22;20210;-74
2021/09/09 10:04:03;;;;;;;5.32;3.13;;;26.60;99.90;;;;;;6274722;22;20178;-75
2021/09/09 10:06:32;;;;;;;6.68;2.88;;;26.80;99.90;;;;;;6274882;22;20179;-81
2021/09/09 10:08:59;;;;;;;4.43;2.75;;;26.80;99.90;;;;;;6275222;22;20257;-76
2021/09/09 10:11:26;;;;;;;5.47;3.60;;;27.00;99.90;;;;;;6274779;22;20209;-76
2021/09/09 10:13:55;;;;;;;4.28;3.35;;;26.90;99.90;;;;;;6274833;22;20179;-76
2021/09/09 10:16:24;;;;;;;4.68;3.03;;;26.90;99.90;;;;;;6274583;22;20197;-71
2021/09/09 10:18:52;;;;;;;8.27;3.42;;;27.00;99.90;;;;;;6273680;22;20622;-78
2021/09/09 10:21:40;;;;;;;6.00;3.17;;;27.30;99.90;;;;;;6274122;22;20233;-74
2021/09/09 10:24:12;;;;;;;5.40;3.03;;;27.60;99.90;;;;;;6275411;22;20546;-75
2021/09/09 10:26:39;;;;;;;7.22;3.45;;;27.80;99.90;;;;;;6274111;22;20214;-74
2021/09/09 10:29:09;;;;;;;5.72;3.15;;;27.90;99.90;;;;;;6274998;22;20259;-71
2021/09/09 10:31:42;;;;;;;5.43;3.38;;;28.00;99.90;;;;;;6274903;22;20580;-75
2021/09/09 10:34:21;;;;;;;7.95;3.25;;;28.10;99.90;;;;;;6274324;22;20190;-77
2021/09/09 10:36:48;;;;;;;6.68;3.38;;;28.00;99.90;;;;;;6276048;22;20182;-74
2021/09/09 10:39:19;;;;;;;4.22;3.33;;;27.90;99.90;;;;;;6276772;22;20174;-74
2021/09/09 10:41:47;;;;;;;3.90;2.90;;;27.60;99.90;;;;;;6276525;22;20211;-73
2021/09/09 10:44:16;;;;;;;3.92;2.78;;;27.50;99.90;;;;;;6276200;22;20179;-74
2021/09/09 10:46:45;;;;;;;5.07;3.53;;;27.40;99.90;;;;;;6276565;22;20175;-73
2021/09/09 10:49:17;;;;;;;5.10;3.33;;;27.50;99.90;;;;;;6276638;22;20175;-74
2021/09/09 10:52:07;;;;;;;7.28;3.40;;;27.60;99.90;;;;;;6276370;22;20201;-73
2021/09/09 10:54:54;;;;;;;4.40;2.88;;;27.80;99.90;;;;;;6275916;22;20720;-73
2021/09/09 10:57:21;;;;;;;4.97;3.17;;;27.80;99.90;;;;;;6276286;22;20237;-76
2021/09/09 10:59:50;;;;;;;5.80;3.30;;;28.00;99.90;;;;;;6276544;22;20175;-73
2021/09/09 11:02:19;;;;;;;4.38;3.28;;;28.00;99.90;;;;;;6275987;22;20679;-74
2021/09/09 11:04:49;;;;;;;4.53;2.88;;;27.80;99.90;;;;;;6276181;22;20174;-74
2021/09/09 11:07:24;;;;;;;6.22;3.50;;;27.70;99.90;;;;;;6275899;22;20178;-73
2021/09/09 11:10:05;;;;;;;4.55;3.20;;;27.30;99.90;;;;;;6276442;22;20257;-73
2021/09/09 11:12:37;;;;;;;5.75;3.90;;;27.20;99.90;;;;;;6276122;22;20198;-74
2021/09/09 11:15:08;;;;;;;7.28;4.28;;;27.20;99.90;;;;;;6276126;22;20181;-74
2021/09/09 11:17:35;;;;;;;7.30;4.72;;;27.10;99.90;;;;;;6276395;22;20181;-74
2021/09/09 11:20:04;;;;;;;6.93;4.32;;;26.80;99.90;;;;;;6276419;22;20175;-74
2021/09/09 11:22:31;;;;;;;8.05;4.68;;;26.70;99.90;;;;;;6275629;22;20206;-74
2021/09/09 11:24:59;;;;;;;4.82;3.45;;;26.80;99.90;;;;;;6276140;22;20651;-74
2021/09/09 11:27:29;;;;;;;5.97;3.60;;;26.90;99.90;;;;;;6276420;22;20181;-74
2021/09/09 11:29:57;;;;;;;6.43;3.67;;;26.90;99.90;;;;;;6276393;22;20175;-74
2021/09/09 11:32:25;;;;;;;7.32;3.78;;;27.00;99.90;;;;;;6275754;22;20229;-74
2021/09/09 11:34:52;;;;;;;6.88;3.67;;;27.30;99.90;;;;;;6276428;22;20189;-74
2021/09/09 11:37:19;;;;;;;6.93;3.53;;;27.50;99.90;;;;;;6275916;22;20225;-74
2021/09/09 11:39:46;;;;;;;7.72;3.47;;;27.60;99.90;;;;;;6276090;22;20720;-74
2021/09/09 11:42:13;;;;;;;5.82;3.25;;;27.60;99.90;;;;;;6276004;22;20206;-74
2021/09/09 11:44:41;;;;;;;4.30;3.17;;;27.60;99.90;;;;;;6275918;22;20217;-74
2021/09/09 11:47:12;;;;;;;5.95;3.10;;;27.60;99.90;;;;;;6276581;22;20556;-74
2021/09/09 11:49:40;;;;;;;7.78;3.55;;;27.60;99.90;;;;;;6276398;22;20175;-74
2021/09/09 11:52:08;;;;;;;8.20;3.35;;;27.50;99.90;;;;;;6275590;22;20195;-74
2021/09/09 11:54:37;;;;;;;4.05;2.92;;;27.40;99.90;;;;;;6277654;22;20181;-74
2021/09/09 11:57:06;;;;;;;6.00;3.10;;;27.50;99.90;;;;;;6278269;22;20489;-74
2021/09/09 11:59:34;;;;;;;5.80;2.92;;;27.40;99.90;;;;;;6277915;22;20178;-74
2021/09/09 12:02:06;;;;;;;4.53;2.97;;;27.40;99.90;;;;;;6277982;22;20269;-74
2021/09/09 12:04:37;;;;;;;5.82;3.13;;;27.30;99.90;;;;;;6277805;22;20648;-74
2021/09/09 12:07:06;;;;;;;4.82;3.28;;;27.20;99.90;;;;;;6277544;22;20638;-74
2021/09/09 12:09:37;;;;;;;6.72;3.00;;;27.30;99.90;;;;;;6277869;22;20179;-75
2021/09/09 12:12:06;;;;;;;5.72;3.95;;;27.50;99.90;;;;;;6278070;22;20201;-75
2021/09/09 12:14:33;;;;;;;5.03;2.90;;;27.40;99.90;;;;;;6277859;22;20207;-74
2021/09/09 12:17:08;;;;;;;4.30;3.03;;;27.50;99.90;;;;;;6277810;22;20179;-75
2021/09/09 12:19:53;;;;;;;8.65;3.58;;;27.50;99.90;;;;;;6277652;22;20174;-75
2021/09/09 12:22:21;;;;;;;5.78;3.53;;;27.40;99.90;;;;;;6277046;22;20210;-75
2021/09/09 12:24:48;;;;;;;6.90;4.05;;;27.40;99.90;;;;;;6278025;22;20175;-75
2021/09/09 12:27:18;;;;;;;5.15;3.40;;;27.40;99.90;;;;;;6277940;22;20178;-75
2021/09/09 12:29:46;;;;;;;5.18;3.20;;;27.50;99.90;;;;;;6277923;22;20181;-75
2021/09/09 12:32:27;;;;;;;5.22;3.45;;;27.70;99.90;;;;;;6277818;22;20195;-74
2021/09/09 12:35:13;;;;;;;4.55;3.20;;;27.90;99.90;;;;;;6277428;22;20187;-75
2021/09/09 12:37:42;;;;;;;4.20;2.80;;;27.70;99.90;;;;;;6277481;22;20209;-75
2021/09/09 12:40:10;;;;;;;4.88;3.35;;;27.70;99.90;;;;;;6277388;22;20637;-74
2021/09/09 12:42:37;;;;;;;4.70;3.40;;;28.00;99.90;;;;;;6277509;22;20211;-75
2021/09/09 12:45:08;;;;;;;6.03;4.10;;;28.00;99.90;;;;;;6277894;22;20175;-75
2021/09/09 12:47:35;;;;;;;5.28;3.67;;;28.30;99.90;;;;;;6277317;22;20186;-75
2021/09/09 12:50:32;;;;;;;4.25;3.03;;;28.60;99.90;;;;;;6277382;22;20174;-75
2021/09/09 12:53:00;;;;;;;7.93;3.25;;;28.40;99.90;;;;;;6277169;22;20244;-74
2021/09/09 12:55:27;;;;;;;5.75;3.58;;;28.40;99.90;;;;;;6277643;22;20181;-75
2021/09/09 12:57:54;;;;;;;4.97;3.42;;;28.50;99.90;;;;;;6277771;22;20181;-75
2021/09/09 13:00:21;;;;;;;7.43;4.65;;;28.40;99.90;;;;;;6277894;22;20182;-75
2021/09/09 13:02:48;;;;;;;5.65;3.38;;;28.30;99.90;;;;;;6277807;22;20210;-75
2021/09/09 13:05:15;;;;;;;6.57;3.42;;;28.20;99.90;;;;;;6276807;22;20175;-74
2021/09/09 13:07:41;;;;;;;5.40;3.33;;;28.40;99.90;;;;;;6278744;22;20185;-74
2021/09/09 13:10:10;;;;;;;5.40;3.05;;;28.50;99.90;;;;;;6278500;22;20257;-74
2021/09/09 13:12:37;;;;;;;7.25;3.05;;;28.50;99.90;;;;;;6278816;22;20195;-74
2021/09/09 13:15:05;;;;;;;4.95;3.10;;;28.30;99.90;;;;;;6278085;22;20186;-74
2021/09/09 13:17:32;;;;;;;5.18;3.15;;;28.20;99.90;;;;;;6277249;22;20179;-74
2021/09/09 13:19:58;;;;;;;5.90;3.03;;;28.00;99.90;;;;;;6277061;22;20215;-75
2021/09/09 13:22:25;;;;;;;4.47;2.83;;;27.80;99.90;;;;;;6277102;22;20210;-74
2021/09/09 13:24:52;;;;;;;5.57;2.78;;;27.90;99.90;;;;;;6277286;22;20175;-74
2021/09/09 13:27:20;;;;;;;4.75;2.80;;;27.90;99.90;;;;;;6277447;22;20472;-74
2021/09/09 13:29:47;;;;;;;6.57;2.65;;;27.80;99.90;;;;;;6276764;22;20509;-74
2021/09/09 13:32:14;;;;;;;3.67;2.70;;;27.70;99.90;;;;;;6276733;22;20665;-74
2021/09/09 13:34:41;;;;;;;4.75;3.50;;;27.80;99.90;;;;;;6276777;22;20178;-74
2021/09/09 13:37:08;;;;;;;4.43;2.60;;;28.00;99.90;;;;;;6277171;22;20175;-74
2021/09/09 13:39:35;;;;;;;3.75;2.70;;;27.90;99.90;;;;;;6277277;22;20265;-74
2021/09/09 13:42:02;;;;;;;4.65;2.35;;;27.90;99.90;;;;;;6276792;22;20533;-74
2021/09/09 13:44:30;;;;;;;4.13;2.90;;;27.90;99.90;;;;;;6277219;22;20257;-74
2021/09/09 13:46:57;;;;;;;4.78;3.13;;;27.80;99.90;;;;;;6276977;22;20505;-74
2021/09/09 13:49:23;;;;;;;5.65;3.40;;;27.80;99.90;;;;;;6276951;22;20506;-74
2021/09/09 13:51:50;;;;;;;6.43;3.13;;;28.00;99.90;;;;;;6276784;22;20205;-74
2021/09/09 13:54:17;;;;;;;8.07;3.65;;;28.00;99.90;;;;;;6277103;22;20181;-75
2021/09/09 13:56:44;;;;;;;5.72;3.67;;;28.20;99.90;;;;;;6277044;22;20182;-75
2021/09/09 13:59:11;;;;;;;5.35;3.63;;;28.50;99.90;;;;;;6277101;22;20179;-74
2021/09/09 14:01:39;;;;;;;4.00;3.15;;;28.60;99.90;;;;;;6276641;22;20217;-74
2021/09/09 14:04:06;;;;;;;4.60;3.42;;;28.80;99.90;;;;;;6276523;22;20261;-75
2021/09/09 14:06:35;;;;;;;5.97;4.00;;;28.80;99.90;;;;;;6276532;22;20197;-75
2021/09/09 14:09:02;;;;;;;3.95;3.00;;;28.80;99.90;;;;;;6276681;22;20565;-74
2021/09/09 14:11:30;;;;;;;6.53;3.70;;;28.80;99.90;;;;;;6276503;22;20175;-74
2021/09/09 14:13:58;;;;;;;6.22;3.25;;;28.80;99.90;;;;;;6272574;22;20179;-76
2021/09/09 14:16:25;;;;;;;7.43;2.88;;;28.70;99.90;;;;;;6274284;22;20185;-73
2021/09/09 14:18:53;;;;;;;6.10;3.35;;;28.50;99.90;;;;;;6274878;22;20702;-75
2021/09/09 14:21:20;;;;;;;4.32;3.03;;;28.50;99.90;;;;;;6274514;22;20629;-75
2021/09/09 14:23:46;;;;;;;4.50;3.10;;;28.30;99.90;;;;;;6274576;22;20598;-76
2021/09/09 14:26:13;;;;;;;6.20;3.22;;;28.10;99.90;;;;;;6275150;22;20193;-76
2021/09/09 14:28:40;;;;;;;4.22;2.90;;;27.90;99.90;;;;;;6274839;22;20257;-77
2021/09/09 14:31:07;;;;;;;5.20;3.58;;;27.80;99.90;;;;;;6274995;22;20184;-76
2021/09/09 14:33:34;;;;;;;5.25;3.25;;;27.90;99.90;;;;;;6274648;22;20736;-78
2021/09/09 14:36:02;;;;;;;5.28;3.42;;;27.70;99.90;;;;;;6274311;22;20637;-75
2021/09/09 14:38:29;;;;;;;4.45;3.30;;;27.60;99.90;;;;;;6274901;22;20181;-74
2021/09/09 14:40:56;;;;;;;5.00;3.30;;;27.40;99.90;;;;;;6274545;22;20179;-78
2021/09/09 14:43:23;;;;;;;6.95;3.70;;;27.30;99.90;;;;;;6273420;22;20541;-78
2021/09/09 14:45:50;;;;;;;4.88;3.40;;;27.30;99.90;;;;;;6274979;22;20261;-75
2021/09/09 14:48:17;;;;;;;5.25;3.35;;;27.10;99.90;;;;;;6275393;22;20202;-74
2021/09/09 14:50:44;;;;;;;6.32;4.30;;;27.10;99.90;;;;;;6276097;22;20175;-73
2021/09/09 14:53:12;;;;;;;7.63;3.80;;;27.10;99.90;;;;;;6276514;22;20202;-74
2021/09/09 14:55:39;;;;;;;5.95;3.40;;;27.20;99.90;;;;;;6276785;22;20197;-73
2021/09/09 14:58:06;;;;;;;5.32;3.78;;;27.10;99.90;;;;;;6276516;22;20174;-74
2021/09/09 15:00:33;;;;;;;6.15;3.70;;;27.00;99.90;;;;;;6276308;22;20179;-73
2021/09/09 15:03:00;;;;;;;7.13;3.85;;;27.10;99.90;;;;;;6276401;22;20210;-73
2021/09/09 15:05:27;;;;;;;5.55;3.50;;;27.10;99.90;;;;;;6276395;22;20175;-74
2021/09/09 15:07:54;;;;;;;5.35;3.65;;;26.90;99.90;;;;;;6276495;22;20179;-74
2021/09/09 15:10:22;;;;;;;6.22;4.05;;;26.90;99.90;;;;;;6276562;22;20174;-75
2021/09/09 15:12:49;;;;;;;6.13;3.50;;;26.80;99.90;;;;;;6276001;22;20202;-74
2021/09/09 15:15:17;;;;;;;8.68;3.80;;;26.70;99.90;;;;;;6276166;22;20715;-74
2021/09/09 15:17:44;;;;;;;8.15;3.72;;;26.60;99.90;;;;;;6276483;22;20175;-74
2021/09/09 15:20:12;;;;;;;4.97;3.40;;;26.70;99.90;;;;;;6275825;22;20181;-75
2021/09/09 15:22:40;;;;;;;3.90;3.00;;;26.80;99.90;;;;;;6276075;22;20285;-75
2021/09/09 15:25:09;;;;;;;5.00;3.42;;;26.80;99.90;;;;;;6276175;22;20174;-74
2021/09/09 15:27:38;;;;;;;5.72;3.70;;;26.70;99.90;;;;;;6276462;22;20178;-75
2021/09/09 15:30:06;;;;;;;7.80;3.70;;;26.60;99.90;;;;;;6278456;22;20178;-74
2021/09/09 15:32:33;;;;;;;5.00;3.42;;;26.50;99.90;;;;;;6278301;22;20205;-74
2021/09/09 15:34:59;;;;;;;5.75;3.42;;;26.60;99.90;;;;;;6278310;22;20241;-74
2021/09/09 15:37:26;;;;;;;5.90;3.47;;;26.50;99.90;;;;;;6278281;22;20175;-74
2021/09/09 15:39:53;;;;;;;5.15;3.90;;;26.60;99.90;;;;;;6278412;22;20174;-74
2021/09/09 15:42:22;;;;;;;5.55;3.45;;;26.70;99.90;;;;;;6278255;22;20207;-74
2021/09/09 15:44:50;;;;;;;4.78;3.30;;;26.60;99.90;;;;;;6277953;22;20182;-74
2021/09/09 15:47:17;;;;;;;4.32;3.10;;;26.50;99.90;;;;;;6277957;22;20504;-74
2021/09/09 15:49:44;;;;;;;5.65;3.55;;;26.40;99.90;;;;;;6277970;22;20633;-74
2021/09/09 15:52:11;;;;;;;6.18;3.15;;;26.30;99.90;;;;;;6278097;22;20195;-74
2021/09/09 15:54:37;;;;;;;4.18;3.00;;;26.30;99.90;;;;;;6278350;22;20174;-74
2021/09/09 15:57:05;;;;;;;5.25;3.60;;;26.30;99.90;;;;;;6278393;22;20181;-74
2021/09/09 15:59:31;;;;;;;4.60;3.08;;;26.30;99.90;;;;;;6277913;22;20505;-74
2021/09/09 16:02:00;;;;;;;5.40;3.50;;;26.30;99.90;;;;;;6278357;22;20195;-74
2021/09/09 16:04:26;;;;;;;7.63;3.35;;;26.10;99.90;;;;;;6277773;22;20528;-74
2021/09/09 16:06:53;;;;;;;5.45;3.20;;;26.10;99.90;;;;;;6277929;22;20512;-74
2021/09/09 16:09:21;;;;;;;4.68;3.47;;;26.10;99.90;;;;;;6278389;22;20175;-74
2021/09/09 16:11:48;;;;;;;5.90;3.13;;;25.90;99.90;;;;;;6274752;22;20195;-74
2021/09/09 16:14:16;;;;;;;4.03;3.25;;;25.80;99.90;;;;;;6278017;22;20179;-76
2021/09/09 16:16:43;;;;;;;6.47;3.60;;;25.60;99.90;;;;;;6278205;22;20186;-79
2021/09/09 16:19:12;;;;;;;6.28;3.67;;;25.50;99.90;;;;;;6277744;22;20175;-75
2021/09/09 16:21:39;;;;;;;6.10;3.20;;;25.40;99.90;;;;;;6277586;22;20202;-72
2021/09/09 16:24:06;;;;;;;4.63;2.90;;;25.40;99.90;;;;;;6277573;22;20206;-71
2021/09/09 16:26:33;;;;;;;5.95;3.60;;;25.30;99.90;;;;;;6277577;22;20258;-74
2021/09/09 16:29:00;;;;;;;5.50;3.30;;;25.40;99.90;;;;;;6271945;22;20175;-75
2021/09/09 16:31:27;;;;;;;6.50;3.25;;;25.40;99.90;;;;;;6274988;22;20179;-75
2021/09/09 16:33:54;;;;;;;5.18;3.42;;;25.40;99.90;;;;;;6275730;22;20270;-75
2021/09/09 16:36:22;;;;;;;4.93;3.17;;;25.30;99.90;;;;;;6274586;22;20187;-76
2021/09/09 16:38:51;;;;;;;5.20;3.05;;;25.40;99.90;;;;;;6274899;22;20501;-78
2021/09/09 16:41:18;;;;;;;4.60;3.45;;;25.30;99.90;;;;;;6274968;22;20637;-74
2021/09/09 16:43:45;;;;;;;6.22;4.07;;;25.30;99.90;;;;;;6275868;22;20289;-75
2021/09/09 16:46:13;;;;;;;5.32;3.22;;;25.30;99.90;;;;;;6276978;22;20189;-78
2021/09/09 16:48:40;;;;;;;7.05;3.13;;;25.20;99.90;;;;;;6276360;22;20179;-74
2021/09/09 16:51:08;;;;;;;5.88;3.60;;;25.20;99.90;;;;;;6274821;22;20637;-75
2021/09/09 16:53:37;;;;;;;4.93;2.85;;;25.10;99.90;;;;;;6277918;22;20178;-74
2021/09/09 16:56:05;;;;;;;5.03;3.35;;;25.20;99.90;;;;;;6276300;22;20174;-71
2021/09/09 16:58:33;;;;;;;5.47;3.20;;;25.20;99.90;;;;;;6275160;22;20178;-77
2021/09/09 17:00:59;;;;;;;5.22;3.60;;;25.00;99.90;;;;;;6275406;22;20183;-72
2021/09/09 17:03:26;;;;;;;4.28;2.65;;;24.80;99.90;;;;;;6276413;22;20211;-72
2021/09/09 17:05:53;;;;;;;5.72;3.45;;;24.70;99.90;;;;;;6276369;22;20181;-72
2021/09/09 17:08:20;;;;;;;6.32;3.42;;;24.70;99.90;;;;;;6275205;22;20633;-73
2021/09/09 17:10:48;;;;;;;4.93;3.30;;;24.60;99.90;;;;;;6276613;22;20197;-73
2021/09/09 17:13:15;;;;;;;5.47;3.10;;;24.60;99.90;;;;;;6276231;22;20202;-72
2021/09/09 17:15:42;;;;;;;5.57;3.63;;;24.50;99.90;;;;;;6276549;22;20175;-75
2021/09/09 17:18:08;;;;;;;4.63;3.28;;;24.40;99.90;;;;;;6276483;22;20175;-73
2021/09/09 17:20:35;;;;;;;5.82;3.75;;;24.40;99.90;;;;;;6276664;22;20183;-73
2021/09/09 17:23:02;;;;;;;4.57;3.22;;;24.40;99.90;;;;;;6276131;22;20210;-75
2021/09/09 17:25:29;;;;;;;5.15;3.20;;;24.30;99.90;;;;;;6276039;22;20175;-75
2021/09/09 17:27:57;;;;;;;6.15;3.78;;;24.40;99.90;;;;;;6275931;22;20626;-75
2021/09/09 17:30:24;;;;;;;8.05;4.35;;;24.40;99.90;;;;;;6276742;22;20179;-75
2021/09/09 17:32:52;;;;;;;4.90;3.58;;;24.40;99.90;;;;;;6276060;22;20195;-75
2021/09/09 17:35:19;;;;;;;4.93;3.33;;;24.50;99.90;;;;;;6275489;22;20193;-75
2021/09/09 17:37:46;;;;;;;5.20;3.55;;;24.40;99.90;;;;;;6275841;22;20175;-75
2021/09/09 17:40:14;;;;;;;6.03;3.80;;;24.30;99.90;;;;;;6276136;22;20175;-75
2021/09/09 17:42:41;;;;;;;5.65;2.67;;;24.30;99.90;;;;;;6276085;22;20209;-74
2021/09/09 17:45:11;;;;;;;2.78;2.25;;;24.20;99.90;;;;;;6276019;22;20175;-75
2021/09/09 17:47:38;;;;;;;2.70;1.90;;;24.10;99.90;;;;;;6276220;22;20182;-75
2021/09/09 17:50:05;;;;;;;5.60;2.03;;;23.90;99.90;;;;;;6276573;22;20190;-75
2021/09/09 17:52:32;;;;;;;2.33;1.77;;;23.90;99.90;;;;;;6274870;22;20195;-76
2021/09/09 17:55:00;;;;;;;1.92;1.08;;;23.80;99.90;;;;;;6276431;22;20179;-75
2021/09/09 17:57:27;;;;;;;2.15;0.90;;;23.70;99.90;;;;;;6276795;22;20262;-75
2021/09/09 17:59:58;;;;;;;1.20;0.82;;;23.60;99.90;;;;;;6276655;22;20181;-75
2021/09/09 18:02:26;;;;;;;2.70;0.77;;;23.50;99.90;;;;;;6276337;22;20232;-74
2021/09/09 18:04:53;;;;;;;0.60;0.60;;;23.40;99.90;;;;;;6275735;22;20202;-75
2021/09/09 18:07:20;;;;;;;0.60;0.50;;;23.20;99.90;;;;;;6275830;22;20644;-75
2021/09/09 18:09:47;;;;;;;1.02;0.50;;;23.00;99.90;;;;;;6276453;22;20471;-75
2021/09/09 18:12:14;;;;;;;1.60;0.68;;;23.00;99.90;;;;;;6276323;22;20205;-74
2021/09/09 18:14:41;;;;;;;1.92;0.70;;;22.80;99.90;;;;;;6277024;22;20552;-75
2021/09/09 18:17:08;;;;;;;1.23;0.80;;;22.50;99.90;;;;;;6276584;22;20183;-74
2021/09/09 18:19:36;;;;;;;2.03;0.75;;;22.30;99.90;;;;;;6276165;22;20183;-74
2021/09/09 18:22:04;;;;;;;1.67;1.02;;;22.20;99.90;;;;;;6274645;22;20194;-74
2021/09/09 18:24:31;;;;;;;3.20;0.90;;;21.90;99.90;;;;;;6274728;22;20202;-74
2021/09/09 18:26:58;;;;;;;4.65;1.10;;;21.70;99.90;;;;;;6275164;22;20248;-74
2021/09/09 18:29:25;;;;;;;2.92;1.30;;;21.50;99.90;;;;;;6274482;22;20185;-73
2021/09/09 18:31:52;;;;;;;1.85;1.27;;;21.10;99.90;;;;;;6274508;22;20194;-74
2021/09/09 18:34:19;;;;;;;1.50;0.93;;;21.00;99.90;;;;;;6275158;22;20175;-74
2021/09/09 18:36:48;;;;;;;2.65;0.93;;;21.10;99.90;;;;;;6274803;22;20182;-73
2021/09/09 18:39:14;;;;;;;1.70;1.10;;;20.90;99.90;;;;;;6274551;22;20625;-74
2021/09/09 18:41:41;;;;;;;1.98;1.20;;;20.80;99.90;;;;;;6274258;22;20577;-73
2021/09/09 18:44:08;;;;;;;3.35;1.30;;;20.70;99.90;;;;;;6274541;22;20198;-74
2021/09/09 18:46:35;;;;;;;2.63;0.90;;;20.70;99.90;;;;;;6274624;22;20506;-74
2021/09/09 18:49:02;;;;;;;1.60;1.15;;;20.80;99.90;;;;;;6274084;22;20592;-77
2021/09/09 18:51:29;;;;;;;5.07;1.40;;;20.80;99.90;;;;;;6274457;22;20181;-74
2021/09/09 18:53:58;;;;;;;3.05;1.00;;;20.90;99.90;;;;;;6274899;22;20471;-75
2021/09/09 18:56:25;;;;;;;1.52;1.08;;;20.80;99.90;;;;;;6274842;22;20205;-74
2021/09/09 18:58:52;;;;;;;4.22;1.50;;;20.80;99.90;;;;;;6274494;22;20186;-74
2021/09/09 19:01:20;;;;;;;2.10;1.35;;;20.70;99.90;;;;;;6274437;22;20174;-74
2021/09/09 19:03:47;;;;;;;2.45;1.55;;;20.70;99.90;;;;;;6274135;22;20202;-74
2021/09/09 19:06:14;;;;;;;2.13;1.33;;;20.60;99.90;;;;;;6276208;22;20261;-74
2021/09/09 19:08:40;;;;;;;1.90;1.20;;;20.50;99.90;;;;;;6276235;22;20181;-74
2021/09/09 19:11:09;;;;;;;1.80;1.20;;;20.40;99.90;;;;;;6271702;22;20570;-75
2021/09/09 19:13:35;;;;;;;2.92;1.30;;;20.40;99.90;;;;;;6275893;22;20189;-74
2021/09/09 19:16:02;;;;;;;5.03;1.42;;;20.40;99.90;;;;;;6276159;22;20175;-74
2021/09/09 19:18:30;;;;;;;1.67;1.10;;;20.40;99.90;;;;;;6276084;22;20179;-74
2021/09/09 19:20:57;;;;;;;1.63;1.08;;;20.40;99.90;;;;;;6276398;22;20494;-74
2021/09/09 19:23:25;;;;;;;1.23;1.00;;;20.30;99.90;;;;;;6276333;22;20195;-74
2021/09/09 19:25:52;;;;;;;1.70;1.10;;;20.40;99.90;;;;;;6276200;22;20724;-74
2021/09/09 19:28:20;;;;;;;1.38;1.10;;;20.40;99.90;;;;;;6276293;22;20175;-74
2021/09/09 19:30:46;;;;;;;2.90;1.80;;;20.40;99.90;;;;;;6276245;22;20237;-74
2021/09/09 19:33:15;;;;;;;4.15;2.47;;;20.40;99.90;;;;;;6276094;22;20673;-74
2021/09/09 19:35:42;;;;;;;1.85;1.20;;;20.40;99.90;;;;;;6275851;22;20187;-75
2021/09/09 19:38:09;;;;;;;1.83;1.30;;;20.50;99.90;;;;;;6275903;22;20182;-75
2021/09/09 19:40:36;;;;;;;1.80;1.40;;;20.50;99.90;;;;;;6276465;22;20175;-75
2021/09/09 19:43:02;;;;;;;3.17;1.63;;;20.40;99.90;;;;;;6275903;22;20278;-74
2021/09/09 19:45:31;;;;;;;3.63;1.40;;;20.40;99.90;;;;;;6276703;22;20206;-75
2021/09/09 19:47:57;;;;;;;3.10;1.40;;;20.40;99.90;;;;;;6276666;22;20175;-75
2021/09/09 19:50:24;;;;;;;4.47;1.50;;;20.40;99.90;;;;;;6276629;22;20479;-75
2021/09/09 19:52:51;;;;;;;4.30;1.70;;;20.40;99.90;;;;;;6276049;22;20201;-74
2021/09/09 19:55:18;;;;;;;1.88;1.23;;;20.40;99.90;;;;;;6276129;22;20185;-75
2021/09/09 19:57:46;;;;;;;2.15;1.42;;;20.30;99.90;;;;;;6276771;22;20179;-75
2021/09/09 20:00:14;;;;;;;3.10;1.58;;;20.30;99.90;;;;;;6276908;22;20179;-74
2021/09/09 20:02:42;;;;;;;2.78;1.33;;;20.40;99.90;;;;;;6276856;22;20206;-75
2021/09/09 20:05:10;;;;;;;1.85;1.23;;;20.40;99.90;;;;;;6276378;22;20665;-75
2021/09/09 20:07:36;;;;;;;2.58;1.70;;;20.30;99.90;;;;;;6276436;22;20233;-75
2021/09/09 20:10:04;;;;;;;6.55;2.00;;;20.10;99.90;;;;;;6276655;22;20193;-75
2021/09/09 20:12:31;;;;;;;3.67;2.00;;;20.00;99.90;;;;;;6276425;22;20199;-76
2021/09/09 20:14:58;;;;;;;3.15;1.92;;;20.00;99.90;;;;;;6277529;22;20181;-75
2021/09/09 20:17:25;;;;;;;3.67;2.15;;;20.10;99.90;;;;;;6277863;22;20175;-75
2021/09/09 20:19:53;;;;;;;3.67;2.30;;;20.00;99.90;;;;;;6278078;22;20185;-75
2021/09/09 20:22:20;;;;;;;3.13;2.20;;;20.00;99.90;;;;;;6277792;22;20217;-76
2021/09/09 20:24:46;;;;;;;3.72;2.33;;;20.00;99.90;;;;;;6278066;22;20228;-75
2021/09/09 20:27:13;;;;;;;2.90;2.20;;;20.00;99.90;;;;;;6278226;22;20175;-75
2021/09/09 20:29:41;;;;;;;4.70;2.25;;;20.00;99.90;;;;;;6277973;22;20655;-75
2021/09/09 20:32:08;;;;;;;6.20;2.50;;;20.10;99.90;;;;;;6277978;22;20198;-75
2021/09/09 20:34:35;;;;;;;4.03;2.77;;;20.10;99.90;;;;;;6278438;22;20181;-75
2021/09/09 20:37:03;;;;;;;3.60;2.50;;;20.10;99.90;;;;;;6277799;22;20253;-75
2021/09/09 20:39:30;;;;;;;2.97;2.53;;;20.10;99.90;;;;;;6277945;22;20193;-75
2021/09/09 20:41:57;;;;;;;3.78;2.45;;;20.20;99.90;;;;;;6277759;22;20779;-75
2021/09/09 20:44:24;;;;;;;4.33;2.23;;;20.20;99.90;;;;;;6277748;22;20205;-75
2021/09/09 20:46:52;;;;;;;4.05;2.83;;;20.20;99.90;;;;;;6277741;22;20179;-75
2021/09/09 20:49:19;;;;;;;4.38;2.47;;;20.10;99.90;;;;;;6278032;22;20210;-75
2021/09/09 20:51:46;;;;;;;5.43;3.20;;;20.10;99.90;;;;;;6277560;22;20194;-75
2021/09/09 20:54:14;;;;;;;7.22;3.90;;;20.10;99.90;;;;;;6277770;22;20232;-76
2021/09/09 20:56:41;;;;;;;6.93;3.25;;;20.10;99.90;;;;;;6277673;22;20265;-76
2021/09/09 20:59:08;;;;;;;7.65;3.30;;;20.20;99.90;;;;;;6277878;22;20175;-75
2021/09/09 21:01:35;;;;;;;4.65;3.25;;;20.20;99.90;;;;;;6277132;22;20199;-75
2021/09/09 21:04:02;;;;;;;4.53;3.35;;;20.30;99.90;;;;;;6277581;22;20205;-76
2021/09/09 21:06:28;;;;;;;6.28;3.40;;;20.30;99.90;;;;;;6277671;22;20174;-75
2021/09/09 21:08:55;;;;;;;6.45;4.13;;;20.30;99.90;;;;;;6277754;22;20175;-76
2021/09/09 21:11:23;;;;;;;6.63;3.78;;;20.30;99.90;;;;;;6277593;22;20175;-76
2021/09/09 21:13:50;;;;;;;6.97;4.10;;;20.30;99.90;;;;;;6277421;22;20505;-75
2021/09/09 21:16:17;;;;;;;6.55;3.85;;;20.30;99.90;;;;;;6277606;22;20187;-75
2021/09/09 21:18:44;;;;;;;5.40;3.72;;;20.30;99.90;;;;;;6277399;22;20685;-75
2021/09/09 21:21:11;;;;;;;6.15;4.00;;;20.30;99.90;;;;;;6276959;22;20500;-75
2021/09/09 21:23:38;;;;;;;5.72;3.90;;;20.30;99.90;;;;;;6277731;22;20181;-75
2021/09/09 21:26:04;;;;;;;6.18;4.22;;;20.30;99.90;;;;;;6276978;22;20206;-74
2021/09/09 21:28:33;;;;;;;7.15;3.85;;;20.30;99.90;;;;;;6277385;22;20181;-75